Time;durP1;ratioP1;P1;durP2;ratioP2;P2;SDS_P1;SDS_P2;PMS_P1;PMS_P2;Temp;Humidity;BMP_temperature;BMP_pressure;BME280_temperature;BME280_humidity;BME280_pressure;Samples;Min_cycle;Max_cycle;Signal;HPM_P1;HPM_P2
2022/10/13 07:52:54;;;;;;;1.92;1.73;;;18.80;54.00;;;;;;6218430;22;20225;-84
2022/10/13 07:55:33;;;;;;;1.92;1.83;;;18.90;54.10;;;;;;6095127;23;20171;-85
2022/10/13 07:59:04;;;;;;;1.85;1.70;;;18.80;54.30;;;;;;6012893;23;20192;-85
2022/10/13 08:02:28;;;;;;;;;;;;;;;;;;;;;
2022/10/13 08:05:14;;;;;;;3.45;1.63;;;18.80;54.40;;;;;;5935496;24;20172;-84
2022/10/13 08:08:39;;;;;;;2.20;2.00;;;18.80;54.40;;;;;;5921116;24;20160;-84
2022/10/13 08:12:02;;;;;;;;;;;;;;;;;;;;;
2022/10/13 08:16:06;;;;;;;1.67;1.58;;;18.90;54.60;;;;;;5757787;25;20166;-85
2022/10/13 08:18:12;;;;;;;1.75;1.65;;;19.00;54.40;;;;;;5734098;25;20225;-84
2022/10/13 08:21:12;;;;;;;1.90;1.80;;;19.00;54.50;;;;;;5682884;25;20170;-84
2022/10/13 08:24:25;;;;;;;1.90;1.70;;;19.00;54.60;;;;;;5661190;25;20159;-84
2022/10/13 08:26:56;;;;;;;4.10;1.75;;;19.00;54.60;;;;;;5796594;24;20160;-84
2022/10/13 08:29:53;;;;;;;1.90;1.80;;;19.00;54.60;;;;;;5779523;24;20161;-84
2022/10/13 08:32:26;;;;;;;2.08;1.70;;;19.00;54.80;;;;;;5764783;24;20177;-83
2022/10/13 08:34:55;;;;;;;2.38;1.83;;;19.00;55.00;;;;;;5778519;24;20159;-84
2022/10/13 08:37:21;;;;;;;2.70;2.00;;;19.10;55.00;;;;;;5760210;24;20169;-84
2022/10/13 08:39:57;;;;;;;1.80;1.70;;;19.00;55.20;;;;;;5738998;25;20236;-84
2022/10/13 08:42:34;;;;;;;2.20;2.00;;;19.10;55.20;;;;;;5776080;24;20218;-83
2022/10/13 08:45:42;;;;;;;2.20;2.00;;;19.10;55.00;;;;;;5773310;24;20226;-84
2022/10/13 08:52:03;;;;;;;3.28;1.95;;;19.20;55.00;;;;;;5710169;25;20178;-85
2022/10/13 08:58:22;;;;;;;2.00;1.80;;;19.20;55.00;;;;;;5758237;24;20201;-84
2022/10/13 09:01:11;;;;;;;1.90;1.80;;;19.20;55.20;;;;;;5739839;24;20226;-84
2022/10/13 09:03:55;;;;;;;1.80;1.70;;;19.20;55.30;;;;;;5763052;24;20191;-83
2022/10/13 09:06:30;;;;;;;1.92;1.73;;;19.20;55.10;;;;;;5834007;24;20586;-85
2022/10/13 09:09:00;;;;;;;2.08;1.88;;;19.20;55.20;;;;;;5844777;24;20161;-83
2022/10/13 09:11:28;;;;;;;3.00;1.80;;;19.20;55.10;;;;;;5896029;24;20191;-83
2022/10/13 09:13:57;;;;;;;2.45;2.10;;;19.20;55.30;;;;;;5856483;24;20153;-84
2022/10/13 09:16:37;;;;;;;3.47;2.10;;;19.20;55.30;;;;;;5943089;24;20550;-83
2022/10/13 09:19:36;;;;;;;1.92;1.83;;;19.20;55.30;;;;;;5879105;24;20566;-84
2022/10/13 09:22:41;;;;;;;2.22;2.03;;;19.20;55.40;;;;;;5807459;24;20167;-85
2022/10/13 09:25:22;;;;;;;2.10;1.92;;;19.20;55.30;;;;;;5842657;24;20701;-84
2022/10/13 09:27:56;;;;;;;2.20;2.00;;;19.20;55.60;;;;;;5778476;24;20170;-85
2022/10/13 09:30:38;;;;;;;2.55;2.33;;;19.20;55.20;;;;;;5777754;24;20173;-84
2022/10/13 09:33:24;;;;;;;2.58;2.38;;;19.20;55.50;;;;;;5800112;24;20155;-85
2022/10/13 09:36:10;;;;;;;2.30;2.10;;;19.10;55.40;;;;;;5856274;24;20478;-84
2022/10/13 09:39:32;;;;;;;2.30;1.90;;;19.20;55.60;;;;;;5968707;24;20194;-85
2022/10/13 09:46:38;;;;;;;2.25;2.05;;;19.20;55.30;;;;;;5963443;24;20164;-84
2022/10/13 09:49:43;;;;;;;2.50;2.30;;;19.20;55.40;;;;;;5960384;24;20162;-85
2022/10/13 09:55:51;;;;;;;2.28;2.08;;;19.20;55.50;;;;;;5818942;24;20175;-85
2022/10/13 09:58:33;;;;;;;3.15;2.20;;;19.20;55.60;;;;;;5751332;25;20267;-86
2022/10/13 10:05:00;;;;;;;3.47;2.10;;;19.30;55.70;;;;;;5634610;25;20187;-85
2022/10/13 10:08:16;;;;;;;2.55;2.35;;;19.20;55.40;;;;;;5650951;25;20199;-84
2022/10/13 10:14:52;;;;;;;2.63;2.40;;;19.20;55.30;;;;;;5439332;26;20177;-84
2022/10/13 10:28:41;;;;;;;2.58;2.38;;;19.30;55.30;;;;;;5588754;25;20164;-85
2022/10/13 10:32:50;;;;;;;2.55;2.35;;;19.20;55.50;;;;;;5645195;25;20165;-85
2022/10/13 10:39:09;;;;;;;3.53;2.10;;;19.20;55.30;;;;;;5657833;25;20195;-85
2022/10/13 10:42:37;;;;;;;;;;;;;;;;;;;;;
2022/10/13 10:55:57;;;;;;;;;;;;;;;;;;;;;
2022/10/13 10:58:59;;;;;;;2.20;2.00;;;19.30;54.70;;;;;;5692640;25;20234;-86
2022/10/13 11:02:08;;;;;;;2.42;2.17;;;19.30;54.40;;;;;;5709289;25;20159;-85
2022/10/13 11:04:54;;;;;;;2.35;2.15;;;19.30;54.60;;;;;;5751763;24;20168;-84
2022/10/13 11:08:31;;;;;;;2.60;2.40;;;19.30;54.60;;;;;;5674572;25;20159;-85
